createdAt,value
2018-02-05T04:32:38.008Z,97.90
2018-02-05T04:35:11.782Z,98.10
2018-02-05T04:37:45.497Z,98.30
2018-02-05T04:40:19.341Z,98.00
2018-02-05T04:42:53.136Z,97.90
2018-02-05T04:45:26.948Z,97.70
2018-02-05T04:48:01.063Z,97.80
2018-02-05T04:50:34.783Z,97.50
2018-02-05T04:53:08.507Z,97.40
2018-02-05T04:55:42.471Z,97.20
2018-02-05T04:58:34.868Z,97.20
2018-02-05T05:01:08.626Z,97.20
2018-02-05T05:03:42.436Z,96.90
2018-02-05T05:06:16.947Z,96.60
2018-02-05T05:08:50.657Z,96.60
2018-02-05T05:11:25.872Z,97.00
2018-02-05T05:14:00.467Z,96.90
2018-02-05T05:16:37.577Z,96.90
2018-02-05T05:19:12.109Z,97.00
2018-02-05T05:21:45.928Z,96.90
2018-02-05T05:24:20.452Z,97.20
2018-02-05T05:26:54.159Z,97.20
2018-02-05T05:29:27.819Z,97.20
2018-02-05T05:32:01.676Z,97.20
2018-02-05T05:34:35.272Z,97.20
2018-02-05T05:37:09.333Z,97.00
2018-02-05T05:39:43.877Z,96.90
2018-02-05T05:42:17.706Z,96.90
2018-02-05T05:44:51.457Z,96.90
2018-02-05T05:47:25.345Z,96.90
2018-02-05T05:49:59.116Z,96.70
2018-02-05T05:52:33.637Z,96.70
2018-02-05T05:55:07.486Z,96.70
2018-02-05T05:57:42.280Z,96.60
2018-02-05T06:00:17.920Z,96.70
2018-02-05T06:02:52.096Z,96.70
2018-02-05T06:05:25.760Z,96.50
2018-02-05T06:07:59.848Z,96.10
2018-02-05T06:10:33.918Z,96.20
2018-02-05T06:13:08.551Z,96.60
2018-02-05T06:15:42.654Z,96.60
2018-02-05T06:18:16.325Z,96.50
2018-02-05T06:20:50.158Z,96.20
2018-02-05T06:23:24.656Z,95.90
2018-02-05T06:25:58.329Z,95.90
2018-02-05T06:28:32.111Z,96.10
2018-02-05T06:31:05.867Z,96.20
2018-02-05T06:33:42.032Z,96.10
2018-02-05T06:36:15.824Z,96.20
2018-02-05T06:38:49.664Z,96.20
2018-02-05T06:41:23.523Z,96.40
2018-02-05T06:43:58.252Z,96.30
2018-02-05T06:46:32.100Z,95.90
2018-02-05T06:49:07.663Z,95.60
2018-02-05T06:51:53.372Z,95.60
2018-02-05T06:54:38.996Z,95.60
2018-02-05T06:57:12.843Z,95.70
2018-02-05T06:59:47.420Z,96.40
2018-02-05T07:02:21.214Z,96.20
2018-02-05T07:04:55.001Z,96.30
2018-02-05T07:07:28.696Z,96.20
2018-02-05T07:10:03.157Z,96.70
2018-02-05T07:12:37.869Z,96.70
2018-02-05T07:15:11.712Z,96.60
2018-02-05T07:17:46.359Z,96.60
2018-02-05T07:20:20.308Z,96.50
2018-02-05T07:22:54.189Z,96.30
2018-02-05T07:25:28.003Z,96.00
2018-02-05T07:28:01.797Z,96.00
2018-02-05T07:30:35.571Z,96.00
2018-02-05T07:33:09.412Z,96.00
2018-02-05T07:35:47.916Z,96.00
2018-02-05T07:38:23.820Z,95.90
2018-02-05T07:40:57.595Z,95.90
2018-02-05T07:43:32.200Z,95.60
2018-02-05T07:46:05.925Z,95.60
2018-02-05T07:48:40.179Z,95.70
2018-02-05T07:51:15.064Z,95.80
2018-02-05T07:53:48.992Z,95.60
2018-02-05T07:56:23.524Z,95.40
2018-02-05T07:58:57.590Z,95.40
2018-02-05T08:01:35.114Z,95.30
2018-02-05T08:04:10.151Z,94.70
2018-02-05T08:06:47.610Z,94.70
2018-02-05T08:09:21.667Z,95.00
2018-02-05T08:11:56.246Z,95.00
2018-02-05T08:14:30.098Z,95.20
2018-02-05T08:17:04.762Z,95.20
2018-02-05T08:19:38.560Z,95.20
2018-02-05T08:22:12.532Z,95.30
2018-02-05T08:24:47.086Z,95.50
2018-02-05T08:27:22.487Z,95.50
2018-02-05T08:29:57.023Z,95.30
2018-02-05T08:32:30.769Z,95.30
2018-02-05T08:35:09.872Z,95.40
2018-02-05T08:37:43.727Z,95.00
2018-02-05T08:40:18.324Z,94.70
2018-02-05T08:42:52.841Z,94.00
2018-02-05T08:45:26.707Z,94.00
2018-02-05T08:48:00.615Z,94.60
2018-02-05T08:50:34.506Z,94.70
2018-02-05T08:53:08.389Z,94.70
2018-02-05T08:55:45.772Z,94.90
2018-02-05T08:58:20.183Z,94.30
2018-02-05T09:00:54.024Z,94.30
2018-02-05T09:03:27.733Z,93.90
2018-02-05T09:06:01.508Z,93.30
2018-02-05T09:08:35.500Z,92.70
2018-02-05T09:11:10.355Z,92.80
2018-02-05T09:13:44.143Z,92.80
2018-02-05T09:16:17.972Z,92.10
2018-02-05T09:18:52.045Z,92.00
2018-02-05T09:21:25.873Z,91.40
2018-02-05T09:24:00.610Z,91.50
2018-02-05T09:26:35.233Z,91.20
2018-02-05T09:29:09.245Z,91.10
2018-02-05T09:31:44.166Z,90.70
2018-02-05T09:34:17.915Z,88.30
2018-02-05T09:36:52.468Z,88.00
2018-02-05T09:39:26.520Z,87.90
2018-02-05T09:42:00.217Z,86.00
2018-02-05T09:44:34.234Z,85.60
2018-02-05T09:47:08.165Z,86.10
2018-02-05T09:52:22.702Z,85.30
2018-02-05T09:54:57.251Z,85.80
2018-02-05T09:57:31.044Z,85.80
2018-02-05T10:00:04.893Z,83.90
2018-02-05T10:02:39.642Z,84.70
2018-02-05T10:05:13.447Z,81.00
2018-02-05T10:07:47.983Z,80.80
2018-02-05T10:10:21.811Z,80.80
2018-02-05T10:12:55.495Z,80.30
2018-02-05T10:15:29.331Z,83.00
2018-02-05T10:18:04.680Z,80.80
2018-02-05T10:20:39.181Z,80.30
2018-02-05T10:23:12.961Z,80.30
2018-02-05T10:25:46.715Z,78.00
2018-02-05T10:28:20.517Z,79.30
2018-02-05T10:30:54.341Z,79.90
2018-02-05T10:33:28.232Z,80.30
2018-02-05T10:36:05.799Z,79.00
2018-02-05T10:38:39.597Z,79.60
2018-02-05T10:41:13.476Z,79.30
2018-02-05T10:43:47.297Z,78.30
2018-02-05T10:46:21.125Z,76.20
2018-02-05T10:48:55.261Z,77.50
2018-02-05T10:51:28.872Z,75.10
2018-02-05T10:54:02.661Z,73.90
2018-02-05T10:56:36.503Z,75.30
2018-02-05T10:59:11.280Z,74.30
2018-02-05T11:01:45.124Z,73.70
2018-02-05T11:04:24.436Z,75.80
2018-02-05T11:06:58.153Z,77.10
2018-02-05T11:09:32.659Z,75.20
2018-02-05T11:12:06.380Z,75.10
2018-02-05T11:14:40.229Z,75.50
2018-02-05T11:17:13.949Z,75.10
2018-02-05T11:19:47.713Z,75.90
2018-02-05T11:22:21.491Z,75.50
2018-02-05T11:24:56.050Z,74.00
2018-02-05T11:27:29.907Z,74.00
2018-02-05T11:30:03.631Z,74.70
2018-02-05T11:32:38.026Z,76.00
2018-02-05T11:35:12.114Z,76.00
2018-02-05T11:37:45.878Z,77.90
2018-02-05T11:40:19.614Z,75.60
2018-02-05T11:42:53.327Z,75.20
2018-02-05T11:45:28.522Z,71.10
2018-02-05T11:48:02.318Z,70.00
2018-02-05T11:50:37.115Z,70.80
2018-02-05T11:53:11.033Z,69.80
2018-02-05T11:55:45.722Z,72.60
2018-02-05T11:58:19.444Z,70.70
2018-02-05T12:00:53.612Z,69.80
2018-02-05T12:03:28.158Z,70.00
2018-02-05T12:06:01.927Z,70.00
2018-02-05T12:08:37.487Z,69.00
2018-02-05T12:11:11.558Z,69.00
2018-02-05T12:13:46.207Z,72.30
2018-02-05T12:16:20.307Z,72.20
2018-02-05T12:18:55.024Z,74.30
2018-02-05T12:21:28.827Z,73.70
2018-02-05T12:24:02.553Z,72.50
2018-02-05T12:26:36.275Z,73.30
2018-02-05T12:29:10.048Z,72.50
2018-02-05T12:31:43.999Z,73.30
2018-02-05T12:34:17.696Z,70.20
2018-02-05T12:36:51.697Z,71.40
2018-02-05T12:39:26.193Z,72.20
2018-02-05T12:42:02.736Z,72.30
2018-02-05T12:44:42.650Z,72.20
2018-02-05T12:47:16.592Z,72.70
2018-02-05T12:49:50.294Z,72.80
2018-02-05T12:52:30.879Z,70.40
2018-02-05T12:55:04.636Z,70.40
2018-02-05T12:57:39.151Z,66.80
2018-02-05T13:13:34.876Z,67.00
2018-02-05T13:16:08.699Z,66.30
2018-02-05T13:18:42.480Z,66.70
2018-02-05T13:21:16.250Z,66.60
2018-02-05T13:23:50.076Z,66.70
2018-02-05T13:26:23.814Z,67.40
2018-02-05T13:28:57.585Z,68.00
2018-02-05T13:31:31.300Z,65.60
2018-02-05T13:34:04.985Z,67.00
2018-02-05T13:36:39.600Z,66.80
2018-02-05T13:39:13.483Z,66.70
2018-02-05T13:41:47.228Z,66.80
2018-02-05T13:44:20.939Z,65.00
2018-02-05T13:46:55.441Z,64.20
2018-02-05T13:49:30.678Z,64.20
2018-02-05T13:52:05.506Z,62.80
2018-02-05T13:54:39.742Z,62.80
2018-02-05T13:57:13.473Z,65.80
2018-02-05T13:59:47.191Z,65.30
2018-02-05T14:02:20.971Z,65.40
2018-02-05T14:04:55.561Z,65.00
2018-02-05T14:07:35.326Z,65.00
2018-02-05T14:10:10.350Z,66.60
2018-02-05T14:12:44.048Z,66.60
2018-02-05T14:15:17.878Z,67.30
2018-02-05T14:17:51.703Z,67.80
2018-02-05T14:20:25.488Z,67.90
2018-02-05T14:23:00.296Z,66.90
2018-02-05T14:25:33.976Z,66.20
2018-02-05T14:28:07.645Z,66.20
2018-02-05T14:30:42.128Z,67.00
2018-02-05T14:33:15.775Z,67.00
2018-02-05T14:35:49.544Z,67.50
2018-02-05T14:38:24.154Z,67.30
2018-02-05T14:40:57.955Z,67.20
2018-02-05T14:43:31.769Z,69.00
2018-02-05T14:46:05.455Z,67.40
2018-02-05T14:48:39.234Z,68.90
2018-02-05T14:51:13.786Z,69.30
2018-02-05T14:53:47.844Z,69.20
2018-02-05T14:56:22.480Z,68.10
2018-02-05T14:58:56.258Z,68.10
2018-02-05T15:01:30.092Z,69.10
2018-02-05T15:04:03.872Z,67.10
2018-02-05T15:06:37.757Z,66.80
2018-02-05T15:09:11.821Z,67.00
2018-02-05T15:11:46.307Z,64.60
2018-02-05T15:14:20.827Z,65.60
2018-02-05T15:16:54.663Z,65.50
2018-02-05T15:19:29.472Z,65.00
2018-02-05T15:22:03.250Z,65.90
2018-02-05T15:24:37.083Z,66.40
2018-02-05T15:27:10.821Z,65.90
2018-02-05T15:29:45.376Z,66.70
2018-02-05T15:32:19.223Z,66.70
2018-02-05T15:34:53.637Z,68.80
2018-02-05T15:37:27.464Z,68.80
2018-02-05T15:40:01.732Z,70.70
2018-02-05T15:42:36.657Z,70.30
2018-02-05T15:45:10.604Z,69.40
2018-02-05T15:47:44.396Z,69.50
2018-02-05T15:50:18.968Z,68.20
2018-02-05T15:52:52.827Z,68.20
2018-02-05T15:55:26.610Z,69.30
2018-02-05T15:58:00.312Z,66.20
2018-02-05T16:00:34.897Z,67.10
2018-02-05T16:03:09.335Z,66.40
2018-02-05T16:05:44.241Z,68.20
2018-02-05T16:08:17.823Z,68.10
2018-02-05T16:10:51.830Z,67.30
2018-02-05T16:13:26.446Z,68.50
2018-02-05T16:16:00.151Z,68.40
2018-02-05T16:18:33.968Z,67.90
2018-02-05T16:21:08.120Z,68.10
2018-02-05T16:23:42.624Z,67.40
2018-02-05T16:26:16.408Z,67.40
2018-02-05T16:28:50.183Z,68.40
2018-02-05T16:31:24.049Z,68.40
2018-02-05T16:33:57.899Z,68.50
2018-02-05T16:36:31.963Z,69.50
2018-02-05T16:39:05.687Z,70.40
2018-02-05T16:41:39.546Z,70.50
2018-02-05T16:44:13.180Z,70.40
2018-02-05T16:46:47.012Z,71.20
2018-02-05T16:49:21.617Z,72.40
2018-02-05T16:51:56.103Z,73.90
2018-02-05T16:54:29.865Z,73.30
2018-02-05T16:57:03.606Z,72.70
2018-02-05T16:59:37.584Z,74.70
2018-02-05T17:02:12.353Z,74.40
2018-02-05T17:04:46.202Z,73.70
2018-02-05T17:07:20.812Z,74.30
2018-02-05T17:09:54.948Z,74.30
2018-02-05T17:12:29.311Z,75.10
2018-02-05T17:15:03.664Z,74.30
2018-02-05T17:17:38.189Z,74.70
2018-02-05T17:20:11.984Z,74.70
2018-02-05T17:22:45.719Z,74.70
2018-02-05T17:25:19.583Z,75.60
2018-02-05T17:27:53.508Z,76.10
2018-02-05T17:30:27.299Z,76.10
2018-02-05T17:33:01.819Z,77.40
2018-02-05T17:35:35.651Z,77.20
2018-02-05T17:38:09.454Z,78.20
2018-02-05T17:40:44.074Z,79.20
2018-02-05T17:43:17.888Z,79.10
2018-02-05T17:45:51.731Z,80.20
2018-02-05T17:48:25.473Z,80.60
2018-02-05T17:51:00.480Z,79.70
2018-02-05T17:53:34.197Z,79.60
2018-02-05T17:56:07.905Z,79.90
2018-02-05T17:58:41.748Z,80.70
2018-02-05T18:01:15.564Z,81.40
2018-02-05T18:03:50.251Z,81.40
2018-02-05T18:06:25.587Z,80.80
2018-02-05T18:08:59.758Z,80.80
2018-02-05T18:11:33.604Z,80.50
2018-02-05T18:14:08.531Z,80.30
2018-02-05T18:16:42.312Z,80.60
2018-02-05T18:19:17.650Z,80.80
2018-02-05T18:21:51.597Z,80.80
2018-02-05T18:24:25.451Z,80.90
2018-02-05T18:27:00.785Z,82.30
2018-02-05T18:29:35.343Z,82.00
2018-02-05T18:32:10.008Z,83.80
2018-02-05T18:34:43.863Z,83.10
2018-02-05T18:37:17.949Z,83.10
2018-02-05T18:39:51.727Z,84.70
2018-02-05T18:42:25.468Z,84.40
2018-02-05T18:45:00.060Z,85.20
2018-02-05T18:47:33.898Z,85.20
2018-02-05T18:50:07.603Z,85.60
2018-02-05T18:52:41.402Z,85.80
2018-02-05T18:55:15.199Z,86.80
2018-02-05T18:57:49.317Z,86.60
2018-02-05T19:00:36.422Z,87.50
2018-02-05T19:03:10.204Z,87.50
2018-02-05T19:05:44.727Z,88.30
2018-02-05T19:08:19.351Z,88.70
2018-02-05T19:10:53.989Z,88.90
2018-02-05T19:13:27.726Z,88.90
2018-02-05T19:16:02.324Z,89.90
2018-02-05T19:18:36.189Z,89.80
2018-02-05T19:21:11.044Z,89.90
2018-02-05T19:23:44.867Z,89.70
2018-02-05T19:26:19.530Z,89.60
2018-02-05T19:28:53.396Z,89.50
2018-02-05T19:31:27.125Z,89.60
2018-02-05T19:34:01.016Z,89.70
2018-02-05T19:36:34.851Z,90.00
2018-02-05T19:39:09.464Z,90.20
2018-02-05T19:41:44.114Z,90.00
2018-02-05T19:44:17.960Z,90.00
2018-02-05T19:46:52.364Z,90.00
2018-02-05T19:49:26.139Z,90.10
2018-02-05T19:51:59.998Z,90.20
2018-02-05T19:54:33.768Z,90.10
2018-02-05T19:57:08.406Z,90.40
2018-02-05T19:59:42.178Z,90.40
2018-02-05T20:02:15.974Z,90.30
2018-02-05T20:04:50.560Z,90.60
2018-02-05T20:07:26.466Z,90.20
2018-02-05T20:10:00.375Z,90.40
2018-02-05T20:12:34.432Z,90.30
2018-02-05T20:15:08.425Z,90.10
2018-02-05T20:17:42.203Z,89.70
2018-02-05T20:20:16.016Z,89.80
2018-02-05T20:22:49.843Z,89.90
2018-02-05T20:25:23.632Z,89.80
2018-02-05T20:27:57.588Z,90.00
2018-02-05T20:30:31.772Z,90.20
2018-02-05T20:33:07.280Z,89.70
2018-02-05T20:35:41.064Z,89.70
2018-02-05T20:38:14.854Z,89.70
2018-02-05T20:40:49.415Z,89.30
2018-02-05T20:43:24.066Z,89.10
2018-02-05T20:45:57.885Z,89.10
2018-02-05T20:48:32.472Z,88.80
2018-02-05T20:51:06.737Z,88.80
2018-02-05T20:53:40.444Z,88.80
2018-02-05T20:56:14.365Z,88.70
2018-02-05T20:58:48.837Z,88.90
2018-02-05T21:01:23.465Z,89.10
2018-02-05T21:03:57.971Z,89.00
2018-02-05T21:06:31.717Z,88.90
2018-02-05T21:09:07.630Z,89.70
2018-02-05T21:11:41.275Z,89.60
2018-02-05T21:14:15.855Z,90.00
2018-02-05T21:16:50.350Z,89.90
2018-02-05T21:19:24.383Z,89.80
2018-02-05T21:21:58.780Z,89.40
2018-02-05T21:24:32.564Z,89.40
2018-02-05T21:27:06.263Z,88.60
2018-02-05T21:29:40.090Z,88.60
2018-02-05T21:32:14.611Z,88.00
2018-02-05T21:34:48.724Z,87.90
2018-02-05T21:37:22.338Z,87.60
2018-02-05T21:39:56.091Z,88.00
2018-02-05T21:42:29.879Z,88.10
2018-02-05T21:45:03.760Z,88.50
2018-02-05T21:47:37.570Z,88.50
2018-02-05T21:50:11.419Z,88.50
2018-02-05T21:52:45.103Z,89.00
2018-02-05T21:55:18.829Z,88.70
2018-02-05T21:57:52.698Z,89.10
